sensor_id;sensor_type;location;lat;lon;timestamp;temperature;humidity
61398;DHT22;47267;48.130;-2.040;2022-10-16T00:01:08;19.70;68.20
61398;DHT22;47267;48.130;-2.040;2022-10-16T00:03:34;19.70;68.10
61398;DHT22;47267;48.130;-2.040;2022-10-16T00:06:01;19.70;68.10
61398;DHT22;47267;48.130;-2.040;2022-10-16T00:08:27;19.70;68.10
61398;DHT22;47267;48.130;-2.040;2022-10-16T00:11:17;19.70;68.10
61398;DHT22;47267;48.130;-2.040;2022-10-16T00:13:45;19.70;68.10
61398;DHT22;47267;48.130;-2.040;2022-10-16T00:16:11;19.70;68.10
61398;DHT22;47267;48.130;-2.040;2022-10-16T00:18:38;19.60;68.10
61398;DHT22;47267;48.130;-2.040;2022-10-16T00:21:09;19.60;68.10
61398;DHT22;47267;48.130;-2.040;2022-10-16T00:23:36;19.70;68.10
61398;DHT22;47267;48.130;-2.040;2022-10-16T00:26:08;19.70;68.10
61398;DHT22;47267;48.130;-2.040;2022-10-16T00:28:34;19.60;68.10
61398;DHT22;47267;48.130;-2.040;2022-10-16T00:31:05;19.60;68.10
61398;DHT22;47267;48.130;-2.040;2022-10-16T00:33:31;19.60;68.10
61398;DHT22;47267;48.130;-2.040;2022-10-16T00:36:01;19.60;68.10
61398;DHT22;47267;48.130;-2.040;2022-10-16T00:38:27;19.60;68.10
61398;DHT22;47267;48.130;-2.040;2022-10-16T00:40:53;19.60;68.10
61398;DHT22;47267;48.130;-2.040;2022-10-16T00:46:21;19.60;68.10
61398;DHT22;47267;48.130;-2.040;2022-10-16T00:48:59;19.60;68.00
61398;DHT22;47267;48.130;-2.040;2022-10-16T00:51:54;19.60;68.00
61398;DHT22;47267;48.130;-2.040;2022-10-16T00:54:26;19.60;68.00
61398;DHT22;47267;48.130;-2.040;2022-10-16T00:56:53;19.60;68.00
61398;DHT22;47267;48.130;-2.040;2022-10-16T00:59:26;19.60;68.00
61398;DHT22;47267;48.130;-2.040;2022-10-16T01:01:53;19.60;68.00
61398;DHT22;47267;48.130;-2.040;2022-10-16T01:04:19;19.60;68.00
61398;DHT22;47267;48.130;-2.040;2022-10-16T01:15:10;19.50;68.00
61398;DHT22;47267;48.130;-2.040;2022-10-16T01:17:45;19.50;67.90
61398;DHT22;47267;48.130;-2.040;2022-10-16T01:28:15;19.50;68.00
61398;DHT22;47267;48.130;-2.040;2022-10-16T01:30:44;19.50;67.90
61398;DHT22;47267;48.130;-2.040;2022-10-16T01:33:42;19.50;67.90
61398;DHT22;47267;48.130;-2.040;2022-10-16T01:36:16;19.50;68.00
61398;DHT22;47267;48.130;-2.040;2022-10-16T01:38:47;19.50;67.90
61398;DHT22;47267;48.130;-2.040;2022-10-16T01:41:44;19.50;67.90
61398;DHT22;47267;48.130;-2.040;2022-10-16T01:46:46;19.50;67.90
61398;DHT22;47267;48.130;-2.040;2022-10-16T01:49:13;19.50;67.90
61398;DHT22;47267;48.130;-2.040;2022-10-16T01:51:39;19.50;67.90
61398;DHT22;47267;48.130;-2.040;2022-10-16T01:54:08;19.50;67.90
61398;DHT22;47267;48.130;-2.040;2022-10-16T01:56:34;19.50;67.90
61398;DHT22;47267;48.130;-2.040;2022-10-16T01:59:07;19.50;67.90
61398;DHT22;47267;48.130;-2.040;2022-10-16T02:01:36;19.50;67.90
61398;DHT22;47267;48.130;-2.040;2022-10-16T02:04:21;19.50;67.90
61398;DHT22;47267;48.130;-2.040;2022-10-16T02:06:49;19.50;67.90
61398;DHT22;47267;48.130;-2.040;2022-10-16T02:09:14;19.50;67.90
61398;DHT22;47267;48.130;-2.040;2022-10-16T02:11:43;19.40;67.90
61398;DHT22;47267;48.130;-2.040;2022-10-16T02:14:09;19.40;67.80
61398;DHT22;47267;48.130;-2.040;2022-10-16T02:16:36;19.40;67.80
61398;DHT22;47267;48.130;-2.040;2022-10-16T02:19:03;19.40;67.90
61398;DHT22;47267;48.130;-2.040;2022-10-16T02:24:40;19.40;67.80
61398;DHT22;47267;48.130;-2.040;2022-10-16T02:30:25;19.40;67.80
61398;DHT22;47267;48.130;-2.040;2022-10-16T02:32:53;19.40;67.80
61398;DHT22;47267;48.130;-2.040;2022-10-16T02:35:21;19.40;67.80
61398;DHT22;47267;48.130;-2.040;2022-10-16T02:37:49;19.40;67.80
61398;DHT22;47267;48.130;-2.040;2022-10-16T02:40:16;19.40;67.80
61398;DHT22;47267;48.130;-2.040;2022-10-16T02:42:42;19.40;67.80
61398;DHT22;47267;48.130;-2.040;2022-10-16T02:45:09;19.40;67.80
61398;DHT22;47267;48.130;-2.040;2022-10-16T02:47:35;19.40;67.80
61398;DHT22;47267;48.130;-2.040;2022-10-16T02:50:01;19.40;67.80
61398;DHT22;47267;48.130;-2.040;2022-10-16T02:52:27;19.30;67.70
61398;DHT22;47267;48.130;-2.040;2022-10-16T02:54:53;19.40;67.80
61398;DHT22;47267;48.130;-2.040;2022-10-16T02:57:18;19.40;67.80
61398;DHT22;47267;48.130;-2.040;2022-10-16T02:59:44;19.40;67.80
61398;DHT22;47267;48.130;-2.040;2022-10-16T03:02:10;19.40;67.80
61398;DHT22;47267;48.130;-2.040;2022-10-16T03:04:37;19.40;67.80
61398;DHT22;47267;48.130;-2.040;2022-10-16T03:07:03;19.40;67.80
61398;DHT22;47267;48.130;-2.040;2022-10-16T03:09:28;19.30;67.70
61398;DHT22;47267;48.130;-2.040;2022-10-16T03:11:54;19.30;67.70
61398;DHT22;47267;48.130;-2.040;2022-10-16T03:14:20;19.30;67.70
61398;DHT22;47267;48.130;-2.040;2022-10-16T03:16:45;19.30;67.70
61398;DHT22;47267;48.130;-2.040;2022-10-16T03:19:11;19.30;67.70
61398;DHT22;47267;48.130;-2.040;2022-10-16T03:21:37;19.30;67.70
61398;DHT22;47267;48.130;-2.040;2022-10-16T03:24:03;19.30;67.70
61398;DHT22;47267;48.130;-2.040;2022-10-16T03:26:28;19.30;67.70
61398;DHT22;47267;48.130;-2.040;2022-10-16T03:28:54;19.30;67.70
61398;DHT22;47267;48.130;-2.040;2022-10-16T03:31:20;19.30;67.70
61398;DHT22;47267;48.130;-2.040;2022-10-16T03:33:45;19.30;67.70
61398;DHT22;47267;48.130;-2.040;2022-10-16T03:36:11;19.30;67.70
61398;DHT22;47267;48.130;-2.040;2022-10-16T03:38:37;19.30;67.70
61398;DHT22;47267;48.130;-2.040;2022-10-16T03:41:02;19.30;67.70
61398;DHT22;47267;48.130;-2.040;2022-10-16T03:43:29;19.30;67.70
61398;DHT22;47267;48.130;-2.040;2022-10-16T03:45:55;19.30;67.70
61398;DHT22;47267;48.130;-2.040;2022-10-16T03:48:20;19.30;67.70
61398;DHT22;47267;48.130;-2.040;2022-10-16T03:50:46;19.30;67.70
61398;DHT22;47267;48.130;-2.040;2022-10-16T03:53:14;19.30;67.70
61398;DHT22;47267;48.130;-2.040;2022-10-16T03:55:42;19.30;67.70
61398;DHT22;47267;48.130;-2.040;2022-10-16T03:58:07;19.30;67.70
61398;DHT22;47267;48.130;-2.040;2022-10-16T04:00:33;19.30;67.70
61398;DHT22;47267;48.130;-2.040;2022-10-16T04:03:00;19.30;67.70
61398;DHT22;47267;48.130;-2.040;2022-10-16T04:05:26;19.30;67.70
61398;DHT22;47267;48.130;-2.040;2022-10-16T04:07:52;19.30;68.30
61398;DHT22;47267;48.130;-2.040;2022-10-16T04:10:18;19.30;67.70
61398;DHT22;47267;48.130;-2.040;2022-10-16T04:12:44;19.20;67.60
61398;DHT22;47267;48.130;-2.040;2022-10-16T04:15:10;19.30;67.70
61398;DHT22;47267;48.130;-2.040;2022-10-16T04:17:36;19.20;67.60
61398;DHT22;47267;48.130;-2.040;2022-10-16T04:20:02;19.20;67.70
61398;DHT22;47267;48.130;-2.040;2022-10-16T04:22:27;19.20;67.60
61398;DHT22;47267;48.130;-2.040;2022-10-16T04:24:53;19.20;67.70
61398;DHT22;47267;48.130;-2.040;2022-10-16T04:27:19;19.20;67.60
61398;DHT22;47267;48.130;-2.040;2022-10-16T04:29:44;19.20;67.60
61398;DHT22;47267;48.130;-2.040;2022-10-16T04:32:10;19.20;67.60
61398;DHT22;47267;48.130;-2.040;2022-10-16T04:34:36;19.20;67.60
61398;DHT22;47267;48.130;-2.040;2022-10-16T04:37:03;19.20;67.60
61398;DHT22;47267;48.130;-2.040;2022-10-16T04:39:29;19.20;67.60
61398;DHT22;47267;48.130;-2.040;2022-10-16T04:41:54;19.20;67.60
61398;DHT22;47267;48.130;-2.040;2022-10-16T04:44:20;19.20;67.60
61398;DHT22;47267;48.130;-2.040;2022-10-16T04:46:46;19.20;67.60
61398;DHT22;47267;48.130;-2.040;2022-10-16T04:49:11;19.20;67.60
61398;DHT22;47267;48.130;-2.040;2022-10-16T04:51:37;19.20;67.70
61398;DHT22;47267;48.130;-2.040;2022-10-16T04:54:03;19.20;67.60
61398;DHT22;47267;48.130;-2.040;2022-10-16T04:56:28;19.20;67.60
61398;DHT22;47267;48.130;-2.040;2022-10-16T04:58:54;19.10;67.60
61398;DHT22;47267;48.130;-2.040;2022-10-16T05:01:20;19.10;67.60
61398;DHT22;47267;48.130;-2.040;2022-10-16T05:03:45;19.10;67.60
61398;DHT22;47267;48.130;-2.040;2022-10-16T05:06:11;19.10;67.60
61398;DHT22;47267;48.130;-2.040;2022-10-16T05:08:37;19.10;67.60
61398;DHT22;47267;48.130;-2.040;2022-10-16T05:11:02;19.10;67.60
61398;DHT22;47267;48.130;-2.040;2022-10-16T05:13:28;19.10;67.60
61398;DHT22;47267;48.130;-2.040;2022-10-16T05:15:54;19.10;67.60
61398;DHT22;47267;48.130;-2.040;2022-10-16T05:18:19;19.10;67.60
61398;DHT22;47267;48.130;-2.040;2022-10-16T05:20:45;19.10;67.60
61398;DHT22;47267;48.130;-2.040;2022-10-16T05:23:11;19.10;67.60
61398;DHT22;47267;48.130;-2.040;2022-10-16T05:25:37;19.10;67.60
61398;DHT22;47267;48.130;-2.040;2022-10-16T05:28:03;19.10;67.60
61398;DHT22;47267;48.130;-2.040;2022-10-16T05:30:28;19.10;67.60
61398;DHT22;47267;48.130;-2.040;2022-10-16T05:32:54;19.10;67.60
61398;DHT22;47267;48.130;-2.040;2022-10-16T05:35:21;19.10;67.60
61398;DHT22;47267;48.130;-2.040;2022-10-16T05:37:47;19.10;67.60
61398;DHT22;47267;48.130;-2.040;2022-10-16T05:40:14;19.10;67.60
61398;DHT22;47267;48.130;-2.040;2022-10-16T05:42:40;19.10;67.60
61398;DHT22;47267;48.130;-2.040;2022-10-16T05:45:08;19.10;67.60
61398;DHT22;47267;48.130;-2.040;2022-10-16T05:47:34;19.10;67.60
61398;DHT22;47267;48.130;-2.040;2022-10-16T05:50:00;19.10;67.60
61398;DHT22;47267;48.130;-2.040;2022-10-16T05:52:27;19.10;67.60
61398;DHT22;47267;48.130;-2.040;2022-10-16T05:54:52;19.10;67.60
61398;DHT22;47267;48.130;-2.040;2022-10-16T05:57:18;19.10;67.60
61398;DHT22;47267;48.130;-2.040;2022-10-16T05:59:44;19.00;67.50
61398;DHT22;47267;48.130;-2.040;2022-10-16T06:02:15;19.10;67.60
61398;DHT22;47267;48.130;-2.040;2022-10-16T06:04:41;19.10;67.60
61398;DHT22;47267;48.130;-2.040;2022-10-16T06:07:07;19.10;67.60
61398;DHT22;47267;48.130;-2.040;2022-10-16T06:09:33;19.00;67.50
61398;DHT22;47267;48.130;-2.040;2022-10-16T06:11:58;19.00;67.50
61398;DHT22;47267;48.130;-2.040;2022-10-16T06:14:24;19.00;67.50
61398;DHT22;47267;48.130;-2.040;2022-10-16T06:16:50;19.10;67.60
61398;DHT22;47267;48.130;-2.040;2022-10-16T06:19:16;19.00;67.50
61398;DHT22;47267;48.130;-2.040;2022-10-16T06:21:42;19.00;67.50
61398;DHT22;47267;48.130;-2.040;2022-10-16T06:24:09;19.00;67.50
61398;DHT22;47267;48.130;-2.040;2022-10-16T06:26:34;19.00;67.50
61398;DHT22;47267;48.130;-2.040;2022-10-16T06:29:00;19.00;67.50
61398;DHT22;47267;48.130;-2.040;2022-10-16T06:31:27;19.00;67.50
61398;DHT22;47267;48.130;-2.040;2022-10-16T06:33:56;19.00;67.50
61398;DHT22;47267;48.130;-2.040;2022-10-16T06:36:22;19.00;67.50
61398;DHT22;47267;48.130;-2.040;2022-10-16T06:38:49;19.00;67.50
61398;DHT22;47267;48.130;-2.040;2022-10-16T06:41:17;19.00;67.50
61398;DHT22;47267;48.130;-2.040;2022-10-16T06:43:43;19.00;67.50
61398;DHT22;47267;48.130;-2.040;2022-10-16T06:46:14;19.00;67.50
61398;DHT22;47267;48.130;-2.040;2022-10-16T06:48:40;19.00;67.50
61398;DHT22;47267;48.130;-2.040;2022-10-16T06:51:09;19.00;67.50
61398;DHT22;47267;48.130;-2.040;2022-10-16T06:53:37;19.00;67.50
61398;DHT22;47267;48.130;-2.040;2022-10-16T06:56:10;19.00;67.50
61398;DHT22;47267;48.130;-2.040;2022-10-16T06:58:37;19.00;67.50
61398;DHT22;47267;48.130;-2.040;2022-10-16T07:01:03;19.00;67.50
61398;DHT22;47267;48.130;-2.040;2022-10-16T07:03:29;19.00;67.50
61398;DHT22;47267;48.130;-2.040;2022-10-16T07:05:55;19.00;67.50
61398;DHT22;47267;48.130;-2.040;2022-10-16T07:08:21;18.90;67.40
61398;DHT22;47267;48.130;-2.040;2022-10-16T07:10:47;19.00;67.50
61398;DHT22;47267;48.130;-2.040;2022-10-16T07:13:13;18.90;67.50
61398;DHT22;47267;48.130;-2.040;2022-10-16T07:15:40;18.90;67.50
61398;DHT22;47267;48.130;-2.040;2022-10-16T07:18:06;18.90;67.50
61398;DHT22;47267;48.130;-2.040;2022-10-16T07:20:32;18.90;67.50
61398;DHT22;47267;48.130;-2.040;2022-10-16T07:22:58;18.90;67.50
61398;DHT22;47267;48.130;-2.040;2022-10-16T07:25:24;18.90;67.50
61398;DHT22;47267;48.130;-2.040;2022-10-16T07:27:50;18.90;67.50
61398;DHT22;47267;48.130;-2.040;2022-10-16T07:30:16;19.00;67.50
61398;DHT22;47267;48.130;-2.040;2022-10-16T07:32:41;19.00;67.50
61398;DHT22;47267;48.130;-2.040;2022-10-16T07:35:07;18.90;67.50
61398;DHT22;47267;48.130;-2.040;2022-10-16T07:37:33;18.90;67.50
61398;DHT22;47267;48.130;-2.040;2022-10-16T07:39:59;18.90;67.50
61398;DHT22;47267;48.130;-2.040;2022-10-16T07:42:24;18.90;67.50
61398;DHT22;47267;48.130;-2.040;2022-10-16T07:44:50;18.90;67.50
61398;DHT22;47267;48.130;-2.040;2022-10-16T07:47:16;18.90;67.50
61398;DHT22;47267;48.130;-2.040;2022-10-16T07:49:42;18.90;67.50
61398;DHT22;47267;48.130;-2.040;2022-10-16T07:52:07;18.90;67.50
61398;DHT22;47267;48.130;-2.040;2022-10-16T07:54:33;18.90;67.50
61398;DHT22;47267;48.130;-2.040;2022-10-16T07:56:59;18.90;67.60
61398;DHT22;47267;48.130;-2.040;2022-10-16T07:59:24;18.90;67.70
61398;DHT22;47267;48.130;-2.040;2022-10-16T08:01:50;19.00;67.70
61398;DHT22;47267;48.130;-2.040;2022-10-16T08:04:16;18.90;67.60
61398;DHT22;47267;48.130;-2.040;2022-10-16T08:06:41;18.90;67.60
61398;DHT22;47267;48.130;-2.040;2022-10-16T08:09:08;19.00;67.60
61398;DHT22;47267;48.130;-2.040;2022-10-16T08:11:34;19.00;67.70
61398;DHT22;47267;48.130;-2.040;2022-10-16T08:13:59;19.00;67.70
61398;DHT22;47267;48.130;-2.040;2022-10-16T08:16:25;19.00;67.70
61398;DHT22;47267;48.130;-2.040;2022-10-16T08:18:51;19.00;67.70
61398;DHT22;47267;48.130;-2.040;2022-10-16T08:21:23;19.00;67.70
61398;DHT22;47267;48.130;-2.040;2022-10-16T08:23:50;19.00;67.70
61398;DHT22;47267;48.130;-2.040;2022-10-16T08:26:17;19.00;67.80
61398;DHT22;47267;48.130;-2.040;2022-10-16T08:28:42;19.10;67.90
61398;DHT22;47267;48.130;-2.040;2022-10-16T08:31:14;19.10;67.80
61398;DHT22;47267;48.130;-2.040;2022-10-16T08:33:42;19.10;67.90
61398;DHT22;47267;48.130;-2.040;2022-10-16T08:36:11;19.10;67.90
61398;DHT22;47267;48.130;-2.040;2022-10-16T08:38:37;19.10;67.80
61398;DHT22;47267;48.130;-2.040;2022-10-16T08:44:07;19.10;67.80
61398;DHT22;47267;48.130;-2.040;2022-10-16T08:49:21;19.20;67.90
61398;DHT22;47267;48.130;-2.040;2022-10-16T08:51:47;19.20;68.50
61398;DHT22;47267;48.130;-2.040;2022-10-16T08:54:34;19.20;67.90
61398;DHT22;47267;48.130;-2.040;2022-10-16T08:57:21;19.20;67.90
61398;DHT22;47267;48.130;-2.040;2022-10-16T08:59:47;19.20;67.90
61398;DHT22;47267;48.130;-2.040;2022-10-16T09:07:32;19.30;68.20
61398;DHT22;47267;48.130;-2.040;2022-10-16T09:15:54;19.30;68.10
61398;DHT22;47267;48.130;-2.040;2022-10-16T09:18:34;19.40;68.80
61398;DHT22;47267;48.130;-2.040;2022-10-16T09:21:10;19.40;68.30
61398;DHT22;47267;48.130;-2.040;2022-10-16T09:23:39;19.40;68.20
61398;DHT22;47267;48.130;-2.040;2022-10-16T09:26:05;19.40;68.20
61398;DHT22;47267;48.130;-2.040;2022-10-16T09:28:35;19.40;68.10
61398;DHT22;47267;48.130;-2.040;2022-10-16T09:31:01;19.40;68.10
61398;DHT22;47267;48.130;-2.040;2022-10-16T09:33:36;19.50;68.10
61398;DHT22;47267;48.130;-2.040;2022-10-16T09:36:04;19.50;68.10
61398;DHT22;47267;48.130;-2.040;2022-10-16T09:38:36;19.40;68.10
61398;DHT22;47267;48.130;-2.040;2022-10-16T09:41:14;19.50;68.10
61398;DHT22;47267;48.130;-2.040;2022-10-16T09:44:40;19.50;68.20
61398;DHT22;47267;48.130;-2.040;2022-10-16T09:47:12;19.50;68.20
61398;DHT22;47267;48.130;-2.040;2022-10-16T09:49:58;19.50;68.20
61398;DHT22;47267;48.130;-2.040;2022-10-16T09:52:28;19.50;68.10
61398;DHT22;47267;48.130;-2.040;2022-10-16T09:55:00;19.50;68.20
61398;DHT22;47267;48.130;-2.040;2022-10-16T09:57:27;19.50;68.20
61398;DHT22;47267;48.130;-2.040;2022-10-16T09:59:55;19.50;68.20
61398;DHT22;47267;48.130;-2.040;2022-10-16T10:02:35;19.60;68.40
61398;DHT22;47267;48.130;-2.040;2022-10-16T10:05:05;19.60;68.40
61398;DHT22;47267;48.130;-2.040;2022-10-16T10:07:43;19.60;68.40
61398;DHT22;47267;48.130;-2.040;2022-10-16T10:10:20;19.60;68.40
61398;DHT22;47267;48.130;-2.040;2022-10-16T10:12:47;19.60;68.40
61398;DHT22;47267;48.130;-2.040;2022-10-16T10:15:14;19.60;68.30
61398;DHT22;47267;48.130;-2.040;2022-10-16T10:17:54;19.60;68.30
61398;DHT22;47267;48.130;-2.040;2022-10-16T10:20:29;19.60;68.30
61398;DHT22;47267;48.130;-2.040;2022-10-16T10:22:57;19.70;68.40
61398;DHT22;47267;48.130;-2.040;2022-10-16T10:25:49;19.70;68.30
61398;DHT22;47267;48.130;-2.040;2022-10-16T10:28:45;19.70;68.30
61398;DHT22;47267;48.130;-2.040;2022-10-16T10:37:35;19.70;68.40
61398;DHT22;47267;48.130;-2.040;2022-10-16T10:45:41;19.80;68.40
61398;DHT22;47267;48.130;-2.040;2022-10-16T10:51:07;19.70;68.30
61398;DHT22;47267;48.130;-2.040;2022-10-16T10:54:02;19.70;68.30
61398;DHT22;47267;48.130;-2.040;2022-10-16T11:01:50;19.80;68.50
61398;DHT22;47267;48.130;-2.040;2022-10-16T11:07:05;19.80;68.50
61398;DHT22;47267;48.130;-2.040;2022-10-16T11:09:45;19.80;68.50
61398;DHT22;47267;48.130;-2.040;2022-10-16T11:12:29;19.80;68.60
61398;DHT22;47267;48.130;-2.040;2022-10-16T11:15:15;19.80;68.80
61398;DHT22;47267;48.130;-2.040;2022-10-16T11:20:26;19.80;68.60
61398;DHT22;47267;48.130;-2.040;2022-10-16T11:22:58;19.90;69.40
61398;DHT22;47267;48.130;-2.040;2022-10-16T11:25:31;19.90;68.70
61398;DHT22;47267;48.130;-2.040;2022-10-16T11:28:16;19.90;68.70
61398;DHT22;47267;48.130;-2.040;2022-10-16T11:30:54;19.90;68.80
61398;DHT22;47267;48.130;-2.040;2022-10-16T11:33:51;19.90;68.70
61398;DHT22;47267;48.130;-2.040;2022-10-16T11:41:51;19.90;68.80
61398;DHT22;47267;48.130;-2.040;2022-10-16T11:44:51;19.90;68.80
61398;DHT22;47267;48.130;-2.040;2022-10-16T11:47:45;19.90;68.80
61398;DHT22;47267;48.130;-2.040;2022-10-16T11:50:24;19.90;68.90
61398;DHT22;47267;48.130;-2.040;2022-10-16T11:53:16;20.00;68.90
61398;DHT22;47267;48.130;-2.040;2022-10-16T11:55:45;20.00;68.90
61398;DHT22;47267;48.130;-2.040;2022-10-16T11:58:25;20.00;68.90
61398;DHT22;47267;48.130;-2.040;2022-10-16T12:01:05;20.00;68.80
61398;DHT22;47267;48.130;-2.040;2022-10-16T12:04:14;20.00;68.80
61398;DHT22;47267;48.130;-2.040;2022-10-16T12:06:54;20.00;68.80
61398;DHT22;47267;48.130;-2.040;2022-10-16T12:09:26;20.00;68.80
61398;DHT22;47267;48.130;-2.040;2022-10-16T12:11:52;20.00;68.80
61398;DHT22;47267;48.130;-2.040;2022-10-16T12:16:56;20.00;68.80
61398;DHT22;47267;48.130;-2.040;2022-10-16T12:19:24;20.00;68.70
61398;DHT22;47267;48.130;-2.040;2022-10-16T12:21:52;20.00;68.70
61398;DHT22;47267;48.130;-2.040;2022-10-16T12:24:42;20.00;68.70
61398;DHT22;47267;48.130;-2.040;2022-10-16T12:27:40;20.00;68.70
61398;DHT22;47267;48.130;-2.040;2022-10-16T12:30:06;20.00;68.70
61398;DHT22;47267;48.130;-2.040;2022-10-16T12:32:37;20.10;68.70
61398;DHT22;47267;48.130;-2.040;2022-10-16T12:35:05;20.00;68.70
61398;DHT22;47267;48.130;-2.040;2022-10-16T12:37:41;20.00;68.60
61398;DHT22;47267;48.130;-2.040;2022-10-16T12:40:27;20.10;68.70
61398;DHT22;47267;48.130;-2.040;2022-10-16T12:42:54;20.10;68.60
61398;DHT22;47267;48.130;-2.040;2022-10-16T12:45:32;20.10;68.60
61398;DHT22;47267;48.130;-2.040;2022-10-16T12:48:00;20.10;68.60
61398;DHT22;47267;48.130;-2.040;2022-10-16T12:50:33;20.10;68.50
61398;DHT22;47267;48.130;-2.040;2022-10-16T12:53:00;20.10;68.50
61398;DHT22;47267;48.130;-2.040;2022-10-16T12:55:35;20.10;68.50
61398;DHT22;47267;48.130;-2.040;2022-10-16T12:58:21;20.10;68.50
61398;DHT22;47267;48.130;-2.040;2022-10-16T13:00:57;20.10;68.50
61398;DHT22;47267;48.130;-2.040;2022-10-16T13:09:58;20.10;68.40
61398;DHT22;47267;48.130;-2.040;2022-10-16T13:14:52;20.10;68.40
61398;DHT22;47267;48.130;-2.040;2022-10-16T13:17:34;20.10;68.30
61398;DHT22;47267;48.130;-2.040;2022-10-16T13:28:01;20.10;68.30
61398;DHT22;47267;48.130;-2.040;2022-10-16T13:30:29;20.10;68.30
61398;DHT22;47267;48.130;-2.040;2022-10-16T13:33:05;20.10;68.30
61398;DHT22;47267;48.130;-2.040;2022-10-16T13:35:33;20.10;68.30
61398;DHT22;47267;48.130;-2.040;2022-10-16T13:38:04;20.10;68.20
61398;DHT22;47267;48.130;-2.040;2022-10-16T13:40:30;20.10;68.20
61398;DHT22;47267;48.130;-2.040;2022-10-16T13:43:00;20.10;68.20
61398;DHT22;47267;48.130;-2.040;2022-10-16T13:45:26;20.10;68.20
61398;DHT22;47267;48.130;-2.040;2022-10-16T13:48:05;20.10;68.20
61398;DHT22;47267;48.130;-2.040;2022-10-16T13:50:31;20.10;68.10
61398;DHT22;47267;48.130;-2.040;2022-10-16T13:53:13;20.10;68.20
61398;DHT22;47267;48.130;-2.040;2022-10-16T13:55:40;20.10;68.20
61398;DHT22;47267;48.130;-2.040;2022-10-16T13:58:13;20.10;68.30
61398;DHT22;47267;48.130;-2.040;2022-10-16T14:00:40;20.10;68.20
61398;DHT22;47267;48.130;-2.040;2022-10-16T14:03:15;20.10;68.20
61398;DHT22;47267;48.130;-2.040;2022-10-16T14:05:50;20.10;68.20
61398;DHT22;47267;48.130;-2.040;2022-10-16T14:08:17;20.10;68.20
61398;DHT22;47267;48.130;-2.040;2022-10-16T14:10:48;20.10;68.10
61398;DHT22;47267;48.130;-2.040;2022-10-16T14:13:15;20.10;68.20
61398;DHT22;47267;48.130;-2.040;2022-10-16T14:15:47;20.10;68.20
61398;DHT22;47267;48.130;-2.040;2022-10-16T14:18:20;20.10;68.20
61398;DHT22;47267;48.130;-2.040;2022-10-16T14:20:48;20.10;68.20
61398;DHT22;47267;48.130;-2.040;2022-10-16T14:23:33;20.10;68.30
61398;DHT22;47267;48.130;-2.040;2022-10-16T14:28:35;20.10;68.30
61398;DHT22;47267;48.130;-2.040;2022-10-16T14:31:22;20.10;68.20
61398;DHT22;47267;48.130;-2.040;2022-10-16T14:33:48;20.10;68.20
61398;DHT22;47267;48.130;-2.040;2022-10-16T14:36:16;20.10;68.20
61398;DHT22;47267;48.130;-2.040;2022-10-16T14:39:14;20.10;68.30
61398;DHT22;47267;48.130;-2.040;2022-10-16T14:41:45;20.10;68.30
61398;DHT22;47267;48.130;-2.040;2022-10-16T14:44:12;20.10;68.30
61398;DHT22;47267;48.130;-2.040;2022-10-16T14:46:40;20.10;68.30
61398;DHT22;47267;48.130;-2.040;2022-10-16T14:51:36;20.10;68.20
61398;DHT22;47267;48.130;-2.040;2022-10-16T14:54:02;20.10;68.30
61398;DHT22;47267;48.130;-2.040;2022-10-16T14:56:43;20.10;68.30
61398;DHT22;47267;48.130;-2.040;2022-10-16T14:59:30;20.10;68.20
61398;DHT22;47267;48.130;-2.040;2022-10-16T15:01:57;20.10;68.30
61398;DHT22;47267;48.130;-2.040;2022-10-16T15:04:23;20.10;68.30
61398;DHT22;47267;48.130;-2.040;2022-10-16T15:06:48;20.10;68.20
61398;DHT22;47267;48.130;-2.040;2022-10-16T15:09:14;20.10;68.30
61398;DHT22;47267;48.130;-2.040;2022-10-16T15:11:40;20.10;68.30
61398;DHT22;47267;48.130;-2.040;2022-10-16T15:14:10;20.20;68.30
61398;DHT22;47267;48.130;-2.040;2022-10-16T15:16:36;20.10;68.30
61398;DHT22;47267;48.130;-2.040;2022-10-16T15:19:02;20.10;68.30
61398;DHT22;47267;48.130;-2.040;2022-10-16T15:21:30;20.10;68.30
61398;DHT22;47267;48.130;-2.040;2022-10-16T15:23:57;20.10;68.30
61398;DHT22;47267;48.130;-2.040;2022-10-16T15:26:25;20.10;68.30
61398;DHT22;47267;48.130;-2.040;2022-10-16T15:28:51;20.10;68.30
61398;DHT22;47267;48.130;-2.040;2022-10-16T15:31:17;20.10;68.40
61398;DHT22;47267;48.130;-2.040;2022-10-16T15:33:43;20.20;68.40
61398;DHT22;47267;48.130;-2.040;2022-10-16T15:36:09;20.10;68.30
61398;DHT22;47267;48.130;-2.040;2022-10-16T15:38:35;20.10;68.30
61398;DHT22;47267;48.130;-2.040;2022-10-16T15:41:01;20.20;68.40
61398;DHT22;47267;48.130;-2.040;2022-10-16T15:43:27;20.20;68.40
61398;DHT22;47267;48.130;-2.040;2022-10-16T15:46:05;20.20;68.40
61398;DHT22;47267;48.130;-2.040;2022-10-16T15:48:33;20.20;68.40
61398;DHT22;47267;48.130;-2.040;2022-10-16T15:51:00;20.20;68.40
61398;DHT22;47267;48.130;-2.040;2022-10-16T15:53:29;20.20;68.50
61398;DHT22;47267;48.130;-2.040;2022-10-16T15:55:55;20.20;68.40
61398;DHT22;47267;48.130;-2.040;2022-10-16T15:58:21;20.20;68.40
61398;DHT22;47267;48.130;-2.040;2022-10-16T16:00:55;20.20;68.40
61398;DHT22;47267;48.130;-2.040;2022-10-16T16:03:21;20.20;68.40
61398;DHT22;47267;48.130;-2.040;2022-10-16T16:05:46;20.20;68.30
61398;DHT22;47267;48.130;-2.040;2022-10-16T16:08:12;20.20;68.30
61398;DHT22;47267;48.130;-2.040;2022-10-16T16:10:38;20.20;68.40
61398;DHT22;47267;48.130;-2.040;2022-10-16T16:13:05;20.20;68.50
61398;DHT22;47267;48.130;-2.040;2022-10-16T16:15:31;20.20;68.40
61398;DHT22;47267;48.130;-2.040;2022-10-16T16:17:56;20.20;68.40
61398;DHT22;47267;48.130;-2.040;2022-10-16T16:20:24;20.30;68.60
61398;DHT22;47267;48.130;-2.040;2022-10-16T16:22:49;20.30;68.40
61398;DHT22;47267;48.130;-2.040;2022-10-16T16:25:16;20.30;68.40
61398;DHT22;47267;48.130;-2.040;2022-10-16T16:27:41;20.30;68.40
61398;DHT22;47267;48.130;-2.040;2022-10-16T16:30:09;20.30;68.40
61398;DHT22;47267;48.130;-2.040;2022-10-16T16:32:35;20.30;68.40
61398;DHT22;47267;48.130;-2.040;2022-10-16T16:35:01;20.30;68.40
61398;DHT22;47267;48.130;-2.040;2022-10-16T16:37:27;20.30;68.40
61398;DHT22;47267;48.130;-2.040;2022-10-16T16:39:54;20.30;68.40
61398;DHT22;47267;48.130;-2.040;2022-10-16T16:42:21;20.30;68.40
61398;DHT22;47267;48.130;-2.040;2022-10-16T16:44:49;20.30;68.40
61398;DHT22;47267;48.130;-2.040;2022-10-16T16:47:16;20.30;68.50
61398;DHT22;47267;48.130;-2.040;2022-10-16T16:49:43;20.30;68.60
61398;DHT22;47267;48.130;-2.040;2022-10-16T16:52:12;20.30;68.60
61398;DHT22;47267;48.130;-2.040;2022-10-16T16:54:38;20.30;68.80
61398;DHT22;47267;48.130;-2.040;2022-10-16T16:57:05;20.30;68.70
61398;DHT22;47267;48.130;-2.040;2022-10-16T16:59:31;20.30;68.60
61398;DHT22;47267;48.130;-2.040;2022-10-16T17:01:59;20.40;68.60
61398;DHT22;47267;48.130;-2.040;2022-10-16T17:04:26;20.40;68.60
61398;DHT22;47267;48.130;-2.040;2022-10-16T17:06:53;20.40;68.60
61398;DHT22;47267;48.130;-2.040;2022-10-16T17:09:20;20.30;68.50
61398;DHT22;47267;48.130;-2.040;2022-10-16T17:11:45;20.30;68.40